Time;durP1;ratioP1;P1;durP2;ratioP2;P2;SDS_P1;SDS_P2;PMS_P1;PMS_P2;Temp;Humidity;BMP_temperature;BMP_pressure;BME280_temperature;BME280_humidity;BME280_pressure;Samples;Min_cycle;Max_cycle;Signal;HPM_P1;HPM_P2
2023/01/30 00:00:08;;;;;;;1.65;0.20;;;-4.00;99.90;;;;;;20903272;28;20037;-55
2023/01/30 00:10:10;;;;;;;0.55;0.20;;;-3.90;99.90;;;;;;20885172;28;20040;-58
2023/01/30 00:20:11;;;;;;;1.40;0.30;;;-4.00;99.90;;;;;;20903383;28;20037;-56
2023/01/30 00:30:13;;;;;;;1.17;0.30;;;-4.00;99.90;;;;;;20902232;28;20474;-56
2023/01/30 00:40:15;;;;;;;0.77;0.30;;;-4.20;99.90;;;;;;20911499;28;20025;-58
2023/01/30 00:50:17;;;;;;;0.93;0.30;;;-4.30;99.90;;;;;;20917889;28;20033;-57
2023/01/30 01:00:19;;;;;;;2.10;0.50;;;-4.30;99.90;;;;;;20917278;28;20060;-56
2023/01/30 01:10:22;;;;;;;1.45;0.38;;;-4.20;99.90;;;;;;20898609;28;20028;-57
2023/01/30 01:20:23;;;;;;;1.10;0.55;;;-4.20;99.90;;;;;;20915522;28;20021;-56
2023/01/30 01:30:25;;;;;;;1.52;0.55;;;-4.30;99.90;;;;;;20897576;28;20040;-56
2023/01/30 01:50:55;;;;;;;0.67;0.23;;;-4.30;99.90;;;;;;20910742;28;20082;-57
2023/01/30 02:00:58;;;;;;;1.00;0.37;;;-4.20;99.90;;;;;;20913370;28;20331;-57
2023/01/30 02:11:26;;;;;;;1.70;0.40;;;-4.10;99.90;;;;;;20894093;28;20029;-55
2023/01/30 02:21:42;;;;;;;1.70;0.50;;;-4.20;99.90;;;;;;20908994;28;20560;-55
2023/01/30 02:32:07;;;;;;;0.80;0.38;;;-4.20;99.90;;;;;;20912135;28;20094;-55
2023/01/30 02:42:31;;;;;;;1.05;0.40;;;-4.00;99.90;;;;;;20890605;28;20051;-56
2023/01/30 02:52:33;;;;;;;0.80;0.40;;;-3.90;99.90;;;;;;20908579;28;20025;-56
2023/01/30 03:03:17;;;;;;;1.25;0.38;;;-3.90;99.90;;;;;;20908030;28;20049;-54
2023/01/30 03:13:43;;;;;;;1.13;0.40;;;-3.90;99.90;;;;;;20905444;28;20033;-56
2023/01/30 03:23:45;;;;;;;0.77;0.30;;;-4.00;99.90;;;;;;20886281;28;20095;-55
2023/01/30 03:33:47;;;;;;;2.35;0.40;;;-4.10;99.90;;;;;;20881733;28;20033;-57
2023/01/30 03:43:49;;;;;;;0.60;0.30;;;-4.20;99.90;;;;;;20886636;28;20025;-58
2023/01/30 03:53:51;;;;;;;0.90;0.50;;;-4.00;99.90;;;;;;20885923;28;20366;-57
2023/01/30 04:03:53;;;;;;;1.70;0.43;;;-4.00;99.90;;;;;;20903740;28;20049;-56
2023/01/30 04:13:55;;;;;;;1.65;0.40;;;-3.80;99.90;;;;;;20884210;28;20044;-57
2023/01/30 04:23:57;;;;;;;0.70;0.30;;;-3.70;99.90;;;;;;20884549;28;20032;-59
2023/01/30 04:33:59;;;;;;;1.48;0.10;;;-3.90;99.90;;;;;;20884082;28;20425;-58
2023/01/30 04:44:01;;;;;;;1.55;0.30;;;-3.90;99.90;;;;;;20902700;28;20028;-55
2023/01/30 04:54:32;;;;;;;1.17;0.38;;;-3.80;99.90;;;;;;20886621;28;20083;-54
2023/01/30 05:04:34;;;;;;;1.08;0.30;;;-3.90;99.90;;;;;;20880296;28;20045;-57
2023/01/30 05:14:40;;;;;;;0.82;0.20;;;-3.90;99.90;;;;;;20901756;28;20045;-58
2023/01/30 05:24:41;;;;;;;1.63;0.40;;;-3.90;99.90;;;;;;20906964;28;20565;-57
2023/01/30 05:34:43;;;;;;;1.63;0.30;;;-4.00;99.90;;;;;;20914511;28;20033;-57
2023/01/30 05:44:45;;;;;;;0.43;0.20;;;-3.90;99.90;;;;;;20914233;28;20041;-55
2023/01/30 05:54:48;;;;;;;1.15;0.20;;;-3.80;99.90;;;;;;20913981;28;20073;-55
2023/01/30 06:04:50;;;;;;;0.90;0.30;;;-3.90;99.90;;;;;;20907712;28;20107;-57
2023/01/30 06:14:52;;;;;;;0.75;0.25;;;-4.00;99.90;;;;;;20911681;28;20063;-57
2023/01/30 06:24:54;;;;;;;1.35;0.40;;;-3.80;99.90;;;;;;20911339;28;20040;-55
2023/01/30 06:34:56;;;;;;;1.00;0.30;;;-3.70;99.90;;;;;;20905273;28;20394;-55
2023/01/30 06:44:57;;;;;;;3.38;0.30;;;-3.60;99.90;;;;;;20905308;28;20091;-55
2023/01/30 06:55:00;;;;;;;1.08;0.40;;;-3.50;99.90;;;;;;20908313;28;20083;-55
2023/01/30 07:05:02;;;;;;;0.93;0.30;;;-2.80;99.90;;;;;;20906457;28;20090;-55
2023/01/30 07:15:06;;;;;;;1.02;0.40;;;-2.50;99.90;;;;;;20904712;28;20088;-59
2023/01/30 07:25:08;;;;;;;1.58;0.52;;;-2.30;99.90;;;;;;20905122;28;20028;-57
2023/01/30 07:35:10;;;;;;;2.15;0.50;;;-2.20;99.90;;;;;;20883019;28;20426;-58
2023/01/30 07:45:11;;;;;;;0.70;0.32;;;-1.80;99.90;;;;;;20904661;28;20029;-55
2023/01/30 07:55:13;;;;;;;3.25;0.32;;;-1.40;99.90;;;;;;20900935;28;20155;-56
2023/01/30 08:05:15;;;;;;;2.65;0.38;;;-1.00;99.90;;;;;;20901842;28;20515;-55
2023/01/30 08:15:17;;;;;;;1.15;0.40;;;-0.10;99.90;;;;;;20902581;28;20168;-55
2023/01/30 08:25:19;;;;;;;1.15;0.30;;;0.10;99.90;;;;;;20901828;28;20048;-55
2023/01/30 08:35:21;;;;;;;0.43;0.10;;;-0.30;99.90;;;;;;20900157;28;20040;-55
2023/01/30 08:45:23;;;;;;;0.82;0.30;;;0.20;99.90;;;;;;20901820;28;20073;-55
2023/01/30 08:55:25;;;;;;;1.23;0.20;;;2.20;99.90;;;;;;20902160;28;20036;-55
2023/01/30 09:05:27;;;;;;;1.02;0.40;;;3.80;96.20;;;;;;20915256;28;20045;-55
2023/01/30 09:15:28;;;;;;;1.42;0.68;;;4.80;96.10;;;;;;20916391;28;20029;-56
2023/01/30 09:25:30;;;;;;;2.95;0.70;;;6.50;92.00;;;;;;20916616;28;20040;-56
2023/01/30 09:35:32;;;;;;;1.45;0.50;;;7.20;90.30;;;;;;20912631;28;20025;-54
2023/01/30 09:45:46;;;;;;;1.13;0.50;;;6.50;91.10;;;;;;20912618;28;20394;-55
2023/01/30 09:55:48;;;;;;;2.30;0.47;;;5.60;92.50;;;;;;20911399;28;20032;-54
2023/01/30 10:05:57;;;;;;;1.42;0.70;;;4.70;93.20;;;;;;20912575;28;20037;-56
2023/01/30 10:16:15;;;;;;;1.63;0.70;;;4.30;94.80;;;;;;20908618;28;20090;-54
2023/01/30 10:26:21;;;;;;;2.42;0.90;;;5.90;92.50;;;;;;20910108;28;20271;-52
2023/01/30 10:36:28;;;;;;;2.67;1.58;;;7.10;91.20;;;;;;20910189;28;20836;-55
2023/01/30 10:46:53;;;;;;;3.08;1.40;;;8.20;89.50;;;;;;20909723;28;20094;-55
2023/01/30 10:57:26;;;;;;;2.97;1.50;;;8.70;83.60;;;;;;20902721;28;20102;-53
2023/01/30 11:07:31;;;;;;;3.13;1.90;;;8.30;84.00;;;;;;20903625;28;20067;-52
2023/01/30 11:17:40;;;;;;;6.28;2.00;;;8.70;84.10;;;;;;20906199;28;20101;-55
2023/01/30 11:27:43;;;;;;;5.87;2.37;;;9.00;82.60;;;;;;20902829;28;20108;-54
2023/01/30 11:37:45;;;;;;;5.05;2.80;;;8.90;78.80;;;;;;20902292;28;20111;-54
2023/01/30 11:47:56;;;;;;;5.70;3.20;;;8.70;86.00;;;;;;20904110;28;20444;-52
2023/01/30 11:58:07;;;;;;;6.38;3.30;;;9.00;82.10;;;;;;20905043;28;20300;-55
2023/01/30 12:08:19;;;;;;;5.25;3.35;;;9.10;86.00;;;;;;20900374;28;20017;-56
2023/01/30 12:18:41;;;;;;;5.50;3.42;;;9.30;83.40;;;;;;20903125;28;20041;-54
2023/01/30 12:28:56;;;;;;;6.53;3.38;;;8.80;82.50;;;;;;20902490;28;20386;-56
2023/01/30 12:39:39;;;;;;;5.45;3.67;;;8.60;84.10;;;;;;20901299;28;20029;-54
2023/01/30 12:49:53;;;;;;;7.25;4.07;;;8.70;85.20;;;;;;20899896;28;20091;-54
2023/01/30 13:00:03;;;;;;;5.80;4.13;;;8.90;85.60;;;;;;20900888;28;20048;-55
2023/01/30 13:10:22;;;;;;;7.03;4.90;;;9.00;84.90;;;;;;20899810;28;20400;-55
2023/01/30 13:20:45;;;;;;;6.90;4.72;;;8.60;86.80;;;;;;20900008;28;20115;-53
2023/01/30 13:30:50;;;;;;;7.75;5.25;;;8.30;86.50;;;;;;20897159;28;20086;-53
2023/01/30 13:40:56;;;;;;;9.43;5.40;;;7.70;88.20;;;;;;20898028;28;20428;-57
2023/01/30 13:51:22;;;;;;;8.63;5.35;;;6.70;90.00;;;;;;20913808;28;20033;-57
2023/01/30 14:01:58;;;;;;;9.18;5.50;;;5.80;91.30;;;;;;20912993;28;20032;-57
2023/01/30 14:12:02;;;;;;;8.50;5.35;;;5.10;92.70;;;;;;20909219;28;20037;-57
2023/01/30 14:22:20;;;;;;;9.80;5.03;;;5.30;92.90;;;;;;20911618;28;20029;-58
2023/01/30 14:32:22;;;;;;;7.10;3.90;;;4.60;94.20;;;;;;20908426;28;20025;-56
2023/01/30 14:42:26;;;;;;;8.90;4.43;;;4.60;92.80;;;;;;20907514;28;20037;-58
2023/01/30 14:52:37;;;;;;;11.48;6.18;;;4.70;93.60;;;;;;20909230;28;20540;-58
2023/01/30 15:02:47;;;;;;;11.68;6.43;;;4.50;95.20;;;;;;20907455;28;20041;-57
2023/01/30 15:13:08;;;;;;;12.48;5.50;;;3.80;96.80;;;;;;20905123;28;20443;-58
2023/01/30 15:23:27;;;;;;;11.67;4.90;;;3.70;97.60;;;;;;20888637;28;20393;-57
2023/01/30 15:33:29;;;;;;;4.15;2.20;;;2.90;98.90;;;;;;20903943;28;20033;-57
2023/01/30 15:43:41;;;;;;;1.02;0.55;;;2.40;99.90;;;;;;20906264;28;20355;-58
2023/01/30 15:53:46;;;;;;;1.40;0.55;;;2.00;97.80;;;;;;20902770;28;20481;-57
2023/01/30 16:03:49;;;;;;;1.17;0.50;;;1.60;98.00;;;;;;20904885;28;20048;-57
2023/01/30 16:13:50;;;;;;;1.55;0.80;;;1.20;98.40;;;;;;20895989;28;20473;-58
2023/01/30 16:24:05;;;;;;;2.20;0.40;;;1.00;99.50;;;;;;20902727;28;20029;-58
2023/01/30 16:34:39;;;;;;;0.40;0.20;;;1.00;97.60;;;;;;20901648;28;20036;-58
2023/01/30 16:44:41;;;;;;;1.73;0.60;;;0.70;98.70;;;;;;20652855;28;20085;-57
2023/01/30 16:54:55;;;;;;;0.30;0.20;;;0.50;97.90;;;;;;20645671;28;20046;-58
2023/01/30 17:05:36;;;;;;;0.80;0.20;;;0.50;96.40;;;;;;20645481;28;20177;-58
2023/01/30 17:15:38;;;;;;;0.57;0.10;;;0.70;96.60;;;;;;20751713;28;20052;-58
2023/01/30 17:25:43;;;;;;;0.28;0.10;;;0.80;95.50;;;;;;20910692;28;20041;-57
2023/01/30 17:35:45;;;;;;;0.20;0.00;;;0.70;97.60;;;;;;20912451;28;20103;-58
2023/01/30 17:45:47;;;;;;;0.65;0.30;;;0.60;97.40;;;;;;20919039;28;20083;-57
2023/01/30 17:55:48;;;;;;;0.30;0.10;;;0.60;96.70;;;;;;20912513;28;20029;-58
2023/01/30 18:05:50;;;;;;;0.50;0.20;;;0.70;97.40;;;;;;20912941;28;20394;-57
2023/01/30 18:15:58;;;;;;;0.35;0.10;;;0.60;96.30;;;;;;20911799;28;20352;-57
2023/01/30 18:26:00;;;;;;;0.30;0.20;;;0.60;96.70;;;;;;20909225;28;20032;-58
2023/01/30 18:36:07;;;;;;;0.40;0.20;;;0.50;95.70;;;;;;20909258;28;20036;-58
2023/01/30 18:46:11;;;;;;;1.20;0.30;;;0.30;95.50;;;;;;20891937;28;20552;-58
2023/01/30 18:56:16;;;;;;;1.20;0.20;;;0.20;96.70;;;;;;20908429;28;20029;-58
2023/01/30 19:06:18;;;;;;;0.30;0.10;;;0.40;94.80;;;;;;20908163;28;20474;-58
2023/01/30 19:16:21;;;;;;;0.85;0.20;;;0.70;92.90;;;;;;20907138;28;20048;-57
2023/01/30 19:26:23;;;;;;;0.60;0.13;;;0.50;94.80;;;;;;20905592;28;20079;-56
2023/01/30 19:36:27;;;;;;;0.68;0.20;;;0.20;94.00;;;;;;20897086;28;20025;-57
2023/01/30 19:46:30;;;;;;;3.50;0.30;;;0.60;91.00;;;;;;20862755;28;20029;-58
2023/01/30 19:56:33;;;;;;;0.88;0.30;;;1.90;87.50;;;;;;20860932;28;20041;-57
2023/01/30 20:06:36;;;;;;;1.27;0.30;;;1.90;87.70;;;;;;20898824;28;20037;-56
2023/01/30 20:16:38;;;;;;;1.00;0.30;;;1.90;88.60;;;;;;20903057;28;20037;-57
2023/01/30 20:26:41;;;;;;;0.90;0.40;;;1.70;89.00;;;;;;20902341;28;20033;-57
2023/01/30 20:36:43;;;;;;;0.73;0.30;;;1.50;88.20;;;;;;20901734;28;20083;-57
2023/01/30 20:46:46;;;;;;;1.05;0.30;;;1.10;86.60;;;;;;20901643;28;20025;-57
2023/01/30 20:56:51;;;;;;;0.63;0.30;;;1.40;86.60;;;;;;20909997;28;20086;-57
2023/01/30 21:06:53;;;;;;;0.52;0.22;;;1.40;86.90;;;;;;20917390;28;20036;-58
2023/01/30 21:16:55;;;;;;;0.50;0.30;;;1.30;88.20;;;;;;20916455;28;20087;-57
2023/01/30 21:26:57;;;;;;;0.47;0.13;;;1.70;84.60;;;;;;20915715;28;20029;-57
2023/01/30 21:47:19;;;;;;;0.33;0.20;;;1.90;84.70;;;;;;20913689;28;20025;-57
2023/01/30 21:57:21;;;;;;;0.35;0.17;;;1.70;85.80;;;;;;20913223;28;20037;-57
2023/01/30 22:07:22;;;;;;;1.15;0.17;;;1.60;85.30;;;;;;20898695;28;20028;-57
2023/01/30 22:17:24;;;;;;;0.70;0.20;;;1.50;86.00;;;;;;20911772;28;20037;-56
2023/01/30 22:27:26;;;;;;;0.30;0.20;;;1.40;87.00;;;;;;20912129;28;20110;-56
2023/01/30 22:37:27;;;;;;;0.55;0.20;;;1.40;84.50;;;;;;20910581;28;20040;-57
2023/01/30 22:47:29;;;;;;;1.55;0.20;;;1.60;83.70;;;;;;20909788;28;20086;-55
2023/01/30 22:57:31;;;;;;;0.63;0.17;;;1.20;85.50;;;;;;20909546;28;20429;-58
2023/01/30 23:07:33;;;;;;;0.90;0.20;;;0.90;84.20;;;;;;20908390;28;20045;-57
2023/01/30 23:27:54;;;;;;;1.17;0.28;;;0.60;84.80;;;;;;20906051;28;20448;-56
2023/01/30 23:38:14;;;;;;;2.80;0.20;;;0.00;90.30;;;;;;20905856;28;20032;-55
2023/01/30 23:48:16;;;;;;;2.65;0.20;;;-0.40;91.80;;;;;;20902050;28;20029;-57
2023/01/30 23:58:17;;;;;;;0.80;0.30;;;0.00;87.50;;;;;;20869836;28;20098;-57
